Time;durP1;ratioP1;P1;durP2;ratioP2;P2;SDS_P1;SDS_P2;PMS_P1;PMS_P2;Temp;Humidity;BMP_temperature;BMP_pressure;BME280_temperature;BME280_humidity;BME280_pressure;Samples;Min_cycle;Max_cycle;Signal;HPM_P1;HPM_P2
2022/05/18 00:03:44;;;;;;;17.88;14.27;;;;;;;15.26;76.60;101792.44;10349700;28;20094;-78
2022/05/18 00:08:45;;;;;;;21.13;14.27;;;;;;;15.23;76.61;101799.13;10337284;28;20047;-78
2022/05/18 00:13:47;;;;;;;35.63;17.83;;;;;;;15.18;75.97;101800.78;10337778;28;20057;-78
2022/05/18 00:18:48;;;;;;;25.25;17.33;;;;;;;15.20;77.11;101804.16;10324882;28;20113;-78
2022/05/18 00:23:48;;;;;;;36.55;18.05;;;;;;;15.25;77.50;101809.84;10324008;28;20545;-78
2022/05/18 00:28:49;;;;;;;21.83;19.67;;;;;;;15.33;77.86;101806.94;10341197;28;20459;-78
2022/05/18 00:33:49;;;;;;;30.48;18.45;;;;;;;15.41;78.31;101801.28;10323627;28;20066;-78
2022/05/18 00:38:50;;;;;;;23.58;17.85;;;;;;;15.41;77.67;101804.00;10340923;28;20042;-78
2022/05/18 00:43:51;;;;;;;29.17;19.80;;;;;;;15.44;78.79;101800.84;10323956;28;20034;-78
2022/05/18 00:48:53;;;;;;;24.25;18.65;;;;;;;15.52;78.42;101794.34;10308591;28;20042;-78
2022/05/18 00:54:05;;;;;;;21.63;17.20;;;;;;;15.56;79.94;101799.19;10323562;28;20036;-78
2022/05/18 00:59:13;;;;;;;38.53;19.60;;;;;;;15.63;83.10;101790.16;10323684;28;20030;-78
2022/05/18 01:04:14;;;;;;;28.77;18.88;;;;;;;15.68;83.27;101787.69;10321648;28;20473;-78
2022/05/18 01:09:19;;;;;;;27.23;18.48;;;;;;;15.72;82.28;101787.03;10322219;28;20085;-78
2022/05/18 01:14:21;;;;;;;33.95;20.48;;;;;;;15.72;81.96;101792.50;10322062;28;20053;-78
2022/05/18 01:19:52;;;;;;;25.92;18.45;;;;;;;15.68;81.37;101795.88;10305688;28;20053;-77
2022/05/18 01:25:14;;;;;;;24.73;19.15;;;;;;;15.69;82.13;101789.34;10298542;28;20466;-78
2022/05/18 01:30:14;;;;;;;21.90;17.35;;;;;;;15.70;85.90;101791.06;10338812;28;20085;-78
2022/05/18 01:35:17;;;;;;;25.88;17.52;;;;;;;15.72;84.32;101778.00;10337023;28;20109;-78
2022/05/18 01:40:36;;;;;;;19.20;15.05;;;;;;;15.69;83.40;101776.53;10338249;28;20030;-78
2022/05/18 01:45:36;;;;;;;20.23;16.05;;;;;;;15.72;82.31;101775.28;10321907;28;20077;-78
2022/05/18 01:50:37;;;;;;;20.60;16.38;;;;;;;15.68;83.51;101777.59;10320676;28;20084;-78
2022/05/18 01:55:38;;;;;;;21.45;16.10;;;;;;;15.68;83.29;101776.75;10320424;28;20055;-78
2022/05/18 02:00:38;;;;;;;16.55;14.65;;;;;;;15.66;82.95;101770.63;10320720;28;20031;-78
2022/05/18 02:05:39;;;;;;;19.05;15.43;;;;;;;15.63;83.83;101768.31;10336313;28;20034;-78
2022/05/18 02:10:39;;;;;;;22.02;14.75;;;;;;;15.61;85.36;101771.25;10303273;28;20074;-78
2022/05/18 02:15:40;;;;;;;17.20;14.38;;;;;;;15.62;84.79;101778.41;10319592;28;20445;-78
2022/05/18 02:20:40;;;;;;;20.42;15.77;;;;;;;15.62;84.11;101780.28;10335669;28;20121;-78
2022/05/18 02:25:41;;;;;;;20.92;14.93;;;;;;;15.64;84.84;101780.94;10334890;28;20062;-78
2022/05/18 02:30:41;;;;;;;20.15;15.30;;;;;;;15.67;85.01;101794.19;10319034;28;20030;-77
2022/05/18 02:35:41;;;;;;;22.05;13.95;;;;;;;15.66;87.89;101789.75;10336110;28;20074;-78
2022/05/18 02:40:42;;;;;;;21.88;12.57;;;;;;;15.79;85.16;101800.69;10335652;28;20058;-78
2022/05/18 02:45:43;;;;;;;13.90;11.98;;;;;;;15.90;84.29;101802.81;10319483;28;20022;-77
2022/05/18 02:50:47;;;;;;;12.77;10.82;;;;;;;16.11;85.37;101801.72;10335637;28;20120;-77
2022/05/18 02:56:05;;;;;;;19.65;12.85;;;;;;;16.38;88.49;101813.47;10333303;28;20050;-77
2022/05/18 03:01:07;;;;;;;18.75;15.60;;;;;;;16.58;88.41;101827.06;10331855;28;20030;-78
2022/05/18 03:06:09;;;;;;;24.27;14.60;;;;;;;16.84;87.35;101833.53;10318372;28;20080;-78
2022/05/18 03:11:09;;;;;;;19.27;12.05;;;;;;;17.03;86.18;101834.50;10316989;28;20033;-77
2022/05/18 03:16:10;;;;;;;22.20;14.05;;;;;;;17.10;83.58;101835.31;10333703;28;20034;-78
2022/05/18 03:26:29;;;;;;;23.52;15.27;;;;;;;17.16;83.54;101834.44;10334670;28;20397;-78
2022/05/18 03:31:30;;;;;;;19.85;14.45;;;;;;;17.24;82.11;101842.41;10333446;28;20030;-77
2022/05/18 03:36:32;;;;;;;26.17;14.32;;;;;;;17.23;81.68;101831.66;10332652;28;20093;-78
2022/05/18 03:41:34;;;;;;;23.15;15.60;;;;;;;17.28;82.17;101835.44;10317608;28;20038;-77
2022/05/18 03:46:35;;;;;;;22.40;14.73;;;;;;;17.35;83.04;101844.44;10317272;28;20393;-78
2022/05/18 03:51:37;;;;;;;17.92;13.98;;;;;;;17.41;81.84;101849.03;10340651;28;20034;-78
2022/05/18 03:56:37;;;;;;;23.63;15.25;;;;;;;17.44;82.33;101856.81;10341641;28;20034;-78
2022/05/18 04:01:40;;;;;;;26.83;16.17;;;;;;;17.53;81.18;101856.56;10325421;28;20077;-78
2022/05/18 04:06:40;;;;;;;24.50;15.43;;;;;;;17.62;81.68;101853.34;10336118;28;20041;-77
2022/05/18 04:11:42;;;;;;;22.05;15.07;;;;;;;17.75;80.84;101860.63;10346267;28;20031;-78
2022/05/18 04:16:49;;;;;;;22.73;14.85;;;;;;;17.86;81.48;101859.94;10360738;28;20042;-77
2022/05/18 04:21:49;;;;;;;;;;;;;;;17.95;80.03;101857.75;10342753;28;20609;-78
2022/05/18 04:26:49;;;;;;;18.02;12.70;;;;;;;18.07;81.82;101872.44;10339973;28;20016;-79
2022/05/18 04:31:50;;;;;;;16.73;14.60;;;;;;;18.23;80.77;101872.94;10322730;28;20034;-78
2022/05/18 04:36:52;;;;;;;14.27;12.10;;;;;;;18.33;81.52;101874.09;10321033;28;20065;-79
2022/05/18 04:41:54;;;;;;;21.70;13.75;;;;;;;18.58;81.47;101887.75;10337402;28;20051;-78
2022/05/18 04:46:58;;;;;;;20.08;12.60;;;;;;;18.77;81.37;101885.91;10321558;28;20058;-76
2022/05/18 04:51:59;;;;;;;14.65;11.18;;;;;;;18.92;81.06;101892.91;10337888;28;20208;-76
2022/05/18 04:57:00;;;;;;;19.98;12.02;;;;;;;18.99;82.03;101897.28;10320323;28;20040;-76
2022/05/18 05:02:00;;;;;;;19.83;13.00;;;;;;;19.05;82.69;101904.59;10319960;28;20045;-74
2022/05/18 05:07:15;;;;;;;20.20;12.80;;;;;;;19.22;82.86;101895.72;10338708;28;20529;-76
2022/05/18 05:12:18;;;;;;;19.30;10.57;;;;;;;19.42;86.24;101899.03;10320551;28;20038;-78
2022/05/18 05:17:19;;;;;;;32.67;12.90;;;;;;;19.51;85.28;101908.63;10321465;28;20030;-79
2022/05/18 05:22:19;;;;;;;16.30;9.02;;;;;;;19.61;85.04;101923.72;10282805;28;1092529;-76
2022/05/18 05:27:20;;;;;;;9.13;8.27;;;;;;;19.92;85.00;101919.94;10337389;28;20061;-76
2022/05/18 05:32:25;;;;;;;11.60;7.43;;;;;;;19.73;85.79;101932.88;10338249;28;20504;-76
2022/05/18 05:37:26;;;;;;;16.13;6.30;;;;;;;19.44;88.67;101946.34;10338703;28;20038;-76
2022/05/18 05:42:26;;;;;;;15.88;9.65;;;;;;;19.38;89.27;101947.28;10305243;28;20038;-76
2022/05/18 05:47:26;;;;;;;9.80;8.30;;;;;;;19.38;89.77;101955.50;10345636;28;20034;-77
2022/05/18 05:52:27;;;;;;;12.00;7.50;;;;;;;20.07;88.84;101964.31;10348271;28;20031;-76
2022/05/18 05:57:27;;;;;;;9.23;6.47;;;;;;;20.74;86.59;101965.97;10330359;28;20034;-77
2022/05/18 06:02:28;;;;;;;10.55;7.80;;;;;;;21.81;81.93;101971.03;10321737;28;20072;-77
2022/05/18 06:07:28;;;;;;;16.98;6.53;;;;;;;22.30;76.93;101968.63;10320479;28;20394;-77
2022/05/18 06:12:28;;;;;;;13.38;6.70;;;;;;;22.56;74.67;101980.09;10335713;28;20121;-77
2022/05/18 06:17:29;;;;;;;9.73;5.60;;;;;;;22.80;71.45;101981.59;10336293;28;20030;-77
2022/05/18 06:22:29;;;;;;;7.43;6.63;;;;;;;22.61;71.89;101997.56;10320578;28;20065;-77
2022/05/18 06:27:29;;;;;;;6.70;5.97;;;;;;;22.76;71.19;102005.28;10319204;28;20560;-77
2022/05/18 06:32:30;;;;;;;17.50;5.18;;;;;;;23.27;70.72;102024.56;10336487;28;20038;-77
2022/05/18 06:37:32;;;;;;;6.80;5.35;;;;;;;23.42;68.77;102016.44;10337339;28;20121;-77
2022/05/18 06:42:33;;;;;;;10.40;5.90;;;;;;;24.04;69.07;102020.81;10319460;28;20130;-77
2022/05/18 06:47:34;;;;;;;6.45;5.82;;;;;;;24.67;65.49;102022.00;10318628;28;20535;-77
2022/05/18 06:52:35;;;;;;;5.90;4.68;;;;;;;25.16;62.45;102040.38;10334362;28;20124;-77
2022/05/18 06:57:35;;;;;;;11.85;5.82;;;;;;;25.59;63.44;102036.44;10334679;28;20433;-77
2022/05/18 07:02:35;;;;;;;12.27;5.25;;;;;;;25.72;62.17;102058.13;10334685;28;20102;-78
2022/05/18 07:07:37;;;;;;;10.43;6.30;;;;;;;25.72;62.67;102052.56;10317575;28;20049;-78
2022/05/18 07:12:37;;;;;;;11.55;5.07;;;;;;;25.73;63.02;102048.69;10334398;28;20041;-78
2022/05/18 07:17:38;;;;;;;11.38;5.50;;;;;;;25.68;60.09;102056.16;10317402;28;20430;-78
2022/05/18 07:22:39;;;;;;;7.28;4.93;;;;;;;26.02;60.15;102055.75;10316986;28;20050;-78
2022/05/18 07:27:39;;;;;;;11.25;5.95;;;;;;;26.33;59.52;102063.03;10336948;28;20090;-78
2022/05/18 07:32:40;;;;;;;15.30;5.72;;;;;;;26.53;57.96;102067.78;10316679;28;20034;-78
2022/05/18 07:37:40;;;;;;;16.25;7.35;;;;;;;26.66;58.53;102066.41;10334067;28;20030;-78
2022/05/18 07:42:42;;;;;;;31.70;8.77;;;;;;;26.94;58.86;102078.91;10333508;28;20042;-78
2022/05/18 07:47:42;;;;;;;8.73;7.78;;;;;;;27.19;57.26;102092.00;10333870;28;20070;-78
2022/05/18 07:52:43;;;;;;;16.25;8.23;;;;;;;27.21;53.80;102080.56;10334112;28;20442;-78
2022/05/18 07:57:44;;;;;;;8.77;7.72;;;;;;;27.38;58.05;102100.56;10335685;28;20461;-79
2022/05/18 08:02:44;;;;;;;14.13;7.63;;;;;;;27.79;57.23;102106.00;10334329;28;20038;-79
2022/05/18 08:07:47;;;;;;;7.78;6.80;;;;;;;28.01;57.32;102111.22;10318737;28;20034;-78
2022/05/18 08:18:09;;;;;;;14.40;7.75;;;;;;;28.52;54.27;102106.19;10333114;28;20481;-79
2022/05/18 08:23:09;;;;;;;15.82;9.23;;;;;;;28.79;53.04;102129.97;10332774;28;20062;-79
2022/05/18 08:28:10;;;;;;;12.48;9.20;;;;;;;28.41;52.02;102138.03;10332902;28;20060;-79
2022/05/18 08:33:11;;;;;;;11.27;7.97;;;;;;;28.63;52.81;102125.63;10320361;28;20041;-79
2022/05/18 08:38:11;;;;;;;11.77;9.90;;;;;;;28.92;52.99;102126.50;10330091;28;20042;-79
2022/05/18 08:43:33;;;;;;;10.65;8.75;;;;;;;29.07;52.42;102121.94;10353049;28;20183;-79
2022/05/18 08:48:45;;;;;;;9.82;8.82;;;;;;;29.02;52.90;102133.97;10336992;28;20066;-79
2022/05/18 08:54:24;;;;;;;15.93;7.80;;;;;;;28.98;52.30;102128.13;10322582;28;20035;-79
2022/05/18 08:59:27;;;;;;;11.00;8.63;;;;;;;29.38;51.53;102137.25;10315124;28;20046;-79
2022/05/18 09:04:40;;;;;;;8.80;6.80;;;;;;;29.68;49.83;102138.09;10305875;28;20117;-79
2022/05/18 09:10:14;;;;;;;9.80;4.90;;;;;;;29.57;50.94;102144.88;10323480;28;20104;-80
2022/05/18 09:15:28;;;;;;;8.00;4.88;;;;;;;29.18;52.50;102143.88;10309473;28;20042;-80
2022/05/18 09:20:39;;;;;;;6.45;4.18;;;;;;;29.86;49.61;102144.84;10306885;28;20174;-80
2022/05/18 09:26:04;;;;;;;9.63;4.63;;;;;;;30.01;47.37;102143.81;10320793;28;20050;-80
2022/05/18 09:31:42;;;;;;;5.38;3.80;;;;;;;30.33;46.70;102134.75;10322015;28;20378;-80
2022/05/18 09:36:58;;;;;;;3.40;3.20;;;;;;;31.53;46.29;102138.94;10339282;28;20038;-80
2022/05/18 09:42:04;;;;;;;4.15;3.75;;;;;;;30.97;45.43;102127.59;10338868;28;20113;-80
2022/05/18 09:47:05;;;;;;;3.30;2.97;;;;;;;30.64;46.55;102140.72;10320077;28;20352;-80
2022/05/18 09:52:07;;;;;;;4.53;3.22;;;;;;;30.22;44.77;102136.88;10336408;28;20044;-80
2022/05/18 09:57:11;;;;;;;3.42;3.13;;;;;;;29.72;45.97;102141.94;10337843;28;20478;-80
2022/05/18 10:07:38;;;;;;;2.58;2.28;;;;;;;28.71;49.06;102147.31;10323748;28;20061;-80
2022/05/18 10:12:48;;;;;;;7.70;2.65;;;;;;;28.37;50.14;102166.75;10304040;28;20069;-80
2022/05/18 10:17:51;;;;;;;1.48;1.38;;;;;;;27.83;49.46;102162.81;10338305;28;20038;-80
2022/05/18 10:22:53;;;;;;;1.88;1.75;;;;;;;29.03;47.38;102154.34;10319849;28;20141;-80
2022/05/18 10:27:54;;;;;;;3.60;2.25;;;;;;;29.91;41.84;102149.56;10319325;28;20048;-80
2022/05/18 10:33:22;;;;;;;3.45;1.65;;;;;;;31.04;43.79;102160.78;10319710;28;20446;-79
2022/05/18 10:38:30;;;;;;;8.75;2.70;;;;;;;30.89;40.46;102173.06;10336222;28;20378;-79
2022/05/18 10:43:30;;;;;;;3.85;2.28;;;;;;;30.83;41.20;102176.25;10335100;28;20061;-79
2022/05/18 10:48:33;;;;;;;7.72;3.05;;;;;;;30.95;40.70;102174.66;10335165;28;20065;-80
2022/05/18 10:53:39;;;;;;;4.60;3.70;;;;;;;30.50;40.22;102167.75;10317967;28;20042;-80
2022/05/18 10:59:04;;;;;;;6.15;4.35;;;;;;;30.07;42.79;102170.56;10318975;28;20477;-79
2022/05/18 11:04:17;;;;;;;4.50;3.20;;;;;;;30.05;41.42;102164.44;10221339;28;20046;-79
2022/05/18 11:09:37;;;;;;;5.63;3.72;;;;;;;30.05;41.93;102158.84;10333838;28;20034;-80
2022/05/18 11:14:50;;;;;;;3.42;3.15;;;;;;;30.26;41.35;102162.25;10335989;28;20038;-80
2022/05/18 11:20:02;;;;;;;7.03;3.05;;;;;;;30.52;41.40;102157.94;10333231;28;20042;-79
2022/05/18 11:26:00;;;;;;;4.43;2.95;;;;;;;30.79;40.04;102154.50;10317023;28;20046;-79
2022/05/18 11:31:10;;;;;;;4.55;3.50;;;;;;;30.83;39.65;102159.47;10277941;28;20043;-79
2022/05/18 11:36:47;;;;;;;3.15;2.30;;;;;;;31.01;38.52;102147.41;10335451;28;20034;-79
2022/05/18 11:42:08;;;;;;;2.33;2.13;;;;;;;31.31;42.38;102156.41;10322848;28;20042;-79
2022/05/18 11:47:08;;;;;;;2.63;2.53;;;;;;;31.60;38.84;102154.19;10326680;28;20121;-79
2022/05/18 11:52:40;;;;;;;5.70;2.67;;;;;;;31.30;40.10;102169.56;10347079;28;20069;-79
2022/05/18 11:57:40;;;;;;;8.48;5.05;;;;;;;31.25;40.23;102162.09;10302987;28;20789;-79
2022/05/18 12:03:15;;;;;;;9.63;2.90;;;;;;;31.36;40.16;102164.72;10315813;28;20121;-79
2022/05/18 12:08:29;;;;;;;3.80;2.53;;;;;;;31.01;40.56;102145.44;10333597;28;20026;-79
2022/05/18 12:13:39;;;;;;;4.43;2.15;;;;;;;30.28;38.75;102132.88;10323577;28;20429;-79
2022/05/18 12:18:53;;;;;;;5.88;2.53;;;;;;;30.69;40.03;102150.97;10341570;28;20034;-79
2022/05/18 12:24:02;;;;;;;2.55;2.35;;;;;;;30.44;40.26;102147.47;10323376;28;20062;-79
2022/05/18 12:29:19;;;;;;;5.78;2.42;;;;;;;30.76;39.85;102140.22;10323191;28;20054;-79
2022/05/18 12:34:37;;;;;;;4.53;2.78;;;;;;;30.79;39.03;102143.31;10317150;28;20038;-79
2022/05/18 12:40:23;;;;;;;3.08;1.75;;;;;;;30.88;39.35;102139.81;10324530;28;20033;-79
2022/05/18 12:46:11;;;;;;;2.60;2.10;;;;;;;30.62;40.65;102144.94;10308665;28;20037;-79
2022/05/18 12:51:54;;;;;;;2.10;2.00;;;;;;;30.90;40.28;102148.72;10325449;28;20046;-79
2022/05/18 12:57:07;;;;;;;4.07;2.28;;;;;;;30.47;37.97;102146.84;10323036;28;20061;-79
2022/05/18 13:09:01;;;;;;;2.55;1.50;;;;;;;28.84;38.36;102138.28;10183458;29;20486;-79
2022/05/18 13:14:20;;;;;;;;;;;;;;;28.91;40.93;102146.34;10257487;28;20047;-79
2022/05/18 13:19:40;;;;;;;1.58;1.38;;;;;;;28.76;39.31;102141.69;10317073;28;19913;-79
2022/05/18 13:25:26;;;;;;;7.22;1.70;;;;;;;28.37;39.27;102141.66;10332692;28;20058;-79
2022/05/18 13:30:52;;;;;;;1.83;1.73;;;;;;;28.99;39.78;102134.53;10325024;28;20093;-79
2022/05/18 13:35:59;;;;;;;2.42;2.25;;;;;;;29.22;40.58;102130.16;10321508;28;20537;-79
2022/05/18 13:41:18;;;;;;;2.78;1.60;;;;;;;29.55;40.48;102122.03;10306176;28;20489;-79
2022/05/18 13:46:23;;;;;;;3.20;2.25;;;;;;;29.15;41.52;102127.72;10320258;28;20066;-79
2022/05/18 13:51:52;;;;;;;3.67;3.28;;;;;;;28.95;41.69;102133.47;10335620;28;20089;-79
2022/05/18 14:02:36;;;;;;;3.28;2.10;;;;;;;28.61;42.53;102139.84;10262150;28;20053;-79
2022/05/18 14:08:25;;;;;;;9.25;3.05;;;;;;;28.48;42.91;102127.41;10321038;28;20109;-80
2022/05/18 14:14:09;;;;;;;;;;;;;;;;;;;;;
2022/05/18 14:20:08;;;;;;;3.60;2.20;;;;;;;26.95;42.41;102118.66;10330840;28;20093;-79
2022/05/18 14:25:54;;;;;;;2.42;1.92;;;;;;;26.84;43.92;102129.78;10313793;28;20517;-79
2022/05/18 14:31:14;;;;;;;2.58;1.95;;;;;;;27.00;44.02;102122.28;10333319;28;20049;-79
2022/05/18 14:37:11;;;;;;;4.00;2.63;;;;;;;26.93;43.51;102113.41;10319242;28;20035;-79
2022/05/18 14:54:14;;;;;;;2.85;1.77;;;;;;;26.86;44.70;102110.88;10323733;28;20030;-79
2022/05/18 14:59:15;;;;;;;3.88;1.80;;;;;;;26.46;43.75;102108.06;10320344;28;20069;-79
2022/05/18 15:05:03;;;;;;;1.52;1.40;;;;;;;25.61;44.29;102109.09;10317820;28;20026;-79
2022/05/18 15:10:34;;;;;;;;;;;;;;;;;;;;;
2022/05/18 15:16:09;;;;;;;2.03;1.70;;;;;;;24.89;45.18;102093.06;10210611;29;20040;-79
2022/05/18 15:27:22;;;;;;;1.63;1.52;;;;;;;25.33;45.42;102076.22;10330346;28;20074;-79
2022/05/18 15:44:15;;;;;;;1.40;1.33;;;;;;;24.80;44.29;102073.34;10279745;28;20445;-79
2022/05/18 15:50:16;;;;;;;2.83;1.85;;;;;;;23.91;45.72;102060.81;10282701;28;20042;-79
2022/05/18 15:55:24;;;;;;;2.40;1.38;;;;;;;24.04;45.67;102057.63;10287766;28;20039;-78
2022/05/18 16:00:40;;;;;;;;;;;;;;;;;;;;;
2022/05/18 16:05:54;;;;;;;2.00;1.80;;;;;;;23.64;48.51;102050.50;10254449;28;20045;-78
2022/05/18 16:11:05;;;;;;;6.10;1.30;;;;;;;23.43;48.58;102052.16;10341809;28;20034;-78
2022/05/18 16:22:16;;;;;;;4.73;2.60;;;;;;;22.96;48.89;102055.34;10178055;29;20068;-78
2022/05/18 16:32:45;;;;;;;3.10;1.98;;;;;;;22.35;52.49;102032.19;10256904;28;20064;-78
2022/05/18 16:38:28;;;;;;;2.55;1.60;;;;;;;22.45;51.33;102029.63;10263482;28;20039;-78
2022/05/18 16:43:37;;;;;;;1.73;1.63;;;;;;;22.49;52.10;102027.19;10276658;28;20039;-78
2022/05/18 16:54:49;;;;;;;;;;;;;;;21.84;53.62;102025.69;10216062;29;20032;-78
2022/05/18 17:00:28;;;;;;;3.90;1.73;;;;;;;21.81;52.32;102018.75;10276346;28;19914;-78
2022/05/18 17:10:57;;;;;;;2.58;1.50;;;;;;;21.81;54.83;102013.22;10309119;28;20046;-78
2022/05/18 17:15:59;;;;;;;5.72;1.58;;;;;;;21.86;53.31;102004.25;10321515;28;20034;-77
2022/05/18 17:21:20;;;;;;;1.92;1.77;;;;;;;21.88;52.60;102002.06;10321666;28;20046;-78
2022/05/18 17:26:32;;;;;;;5.95;1.60;;;;;;;21.88;53.78;102002.06;10331757;28;20088;-77
2022/05/18 17:31:35;;;;;;;2.20;2.00;;;;;;;21.96;51.87;102007.19;10323556;28;20101;-78
2022/05/18 17:36:41;;;;;;;1.05;1.05;;;;;;;22.10;51.22;102001.34;10326599;28;20401;-78
2022/05/18 17:42:06;;;;;;;5.00;1.77;;;;;;;22.08;51.75;102011.78;10334978;28;20533;-78
2022/05/18 17:47:09;;;;;;;1.63;1.50;;;;;;;22.02;51.63;102008.97;10319612;28;20038;-78
2022/05/18 17:52:21;;;;;;;1.50;1.40;;;;;;;21.91;53.09;102007.06;10333402;28;20022;-77
2022/05/18 17:57:23;;;;;;;2.05;1.52;;;;;;;21.68;54.93;101993.41;10317276;28;20034;-77
2022/05/18 18:02:37;;;;;;;4.82;2.10;;;;;;;21.32;56.79;101992.63;10346337;28;20386;-78
2022/05/18 18:07:38;;;;;;;2.83;1.95;;;;;;;21.12;57.17;101979.22;10338000;28;20030;-77
2022/05/18 18:12:38;;;;;;;4.00;2.40;;;;;;;21.19;54.89;101981.88;10319730;28;20465;-78
2022/05/18 18:17:40;;;;;;;4.18;2.28;;;;;;;21.23;54.19;101980.31;10304996;28;20034;-78
2022/05/18 18:22:43;;;;;;;11.30;2.40;;;;;;;21.14;55.15;101972.41;10319728;28;20050;-78
2022/05/18 18:27:49;;;;;;;10.98;2.38;;;;;;;21.19;54.26;101968.94;10338018;28;20050;-78
2022/05/18 18:32:55;;;;;;;2.17;1.90;;;;;;;21.17;54.22;101971.09;10321404;28;20034;-78
2022/05/18 18:37:56;;;;;;;2.42;2.00;;;;;;;21.09;54.11;101958.53;10251692;28;20290;-71
2022/05/18 18:42:56;;;;;;;3.58;2.05;;;;;;;20.80;58.84;101943.81;10235257;29;20047;-73
2022/05/18 18:47:57;;;;;;;1.38;1.27;;;;;;;20.46;61.27;101945.50;10219200;29;20503;-72
2022/05/18 18:58:19;;;;;;;5.13;2.35;;;;;;;20.12;57.92;101934.19;10277863;28;20537;-71
2022/05/18 19:03:19;;;;;;;2.55;1.92;;;;;;;19.92;59.39;101928.16;10275058;28;20051;-70
2022/05/18 19:08:20;;;;;;;2.05;1.42;;;;;;;19.74;58.53;101938.13;10319675;28;20478;-72
2022/05/18 19:13:20;;;;;;;1.67;1.48;;;;;;;19.50;62.83;101934.44;10318571;28;20088;-70
2022/05/18 19:18:21;;;;;;;7.53;1.50;;;;;;;19.25;66.12;101925.47;10334931;28;20038;-70
2022/05/18 19:23:27;;;;;;;4.80;1.80;;;;;;;19.15;61.82;101937.00;10318470;28;20057;-71
2022/05/18 19:28:28;;;;;;;6.37;1.93;;;;;;;18.90;68.79;101934.31;10317426;28;20374;-71
2022/05/18 19:33:29;;;;;;;5.78;1.88;;;;;;;18.85;64.02;101928.66;10300171;28;20053;-71
2022/05/18 19:38:29;;;;;;;3.33;2.60;;;;;;;18.65;70.11;101923.34;10316958;28;20038;-71
2022/05/18 19:43:33;;;;;;;1.85;1.75;;;;;;;18.46;72.22;101922.47;10317586;28;20026;-71
2022/05/18 19:48:34;;;;;;;4.18;2.08;;;;;;;18.36;70.18;101920.25;10317229;28;20026;-70
2022/05/18 19:53:34;;;;;;;2.03;1.88;;;;;;;18.36;70.78;101911.19;10300441;28;20030;-71
2022/05/18 19:58:35;;;;;;;11.80;2.40;;;;;;;18.45;69.19;101911.75;10316641;28;20046;-77
2022/05/18 20:03:35;;;;;;;1.95;1.85;;;;;;;18.44;66.00;101913.66;10333341;28;20042;-77
2022/05/18 20:08:37;;;;;;;4.55;2.08;;;;;;;18.30;64.71;101912.91;10316550;28;20038;-77
2022/05/18 20:13:38;;;;;;;6.13;2.67;;;;;;;18.20;66.04;101903.53;10315613;28;20402;-79
2022/05/18 20:18:39;;;;;;;7.10;2.35;;;;;;;18.16;66.83;101900.41;10333241;28;20466;-80
2022/05/18 20:23:39;;;;;;;3.17;2.15;;;;;;;18.10;67.16;101898.56;10315971;28;20062;-81
2022/05/18 20:28:40;;;;;;;3.58;2.28;;;;;;;18.02;65.26;101887.84;10318199;28;20042;-77
2022/05/18 20:33:40;;;;;;;9.90;2.42;;;;;;;17.97;66.64;101884.97;10307483;28;20026;-77
2022/05/18 20:38:41;;;;;;;2.28;2.15;;;;;;;17.92;65.84;101876.56;10340485;28;20123;-77
2022/05/18 20:43:42;;;;;;;3.03;2.00;;;;;;;17.91;66.55;101880.38;10330350;28;20114;-77
2022/05/18 20:48:43;;;;;;;10.90;2.80;;;;;;;17.86;65.79;101881.00;10352110;28;20042;-77
2022/05/18 20:53:44;;;;;;;3.60;2.17;;;;;;;17.77;69.09;101876.88;10345835;28;20036;-77
2022/05/18 20:58:44;;;;;;;7.03;2.75;;;;;;;17.70;72.67;101876.88;10341085;28;20038;-77
2022/05/18 21:03:45;;;;;;;1.60;1.52;;;;;;;17.75;73.09;101868.84;10341109;28;20030;-77
2022/05/18 21:08:45;;;;;;;2.28;2.17;;;;;;;17.79;74.40;101870.09;10340895;28;20039;-77
2022/05/18 21:13:46;;;;;;;2.90;2.55;;;;;;;17.89;72.52;101856.75;10323537;28;20031;-77
2022/05/18 21:18:46;;;;;;;4.47;2.33;;;;;;;17.94;71.28;101855.25;10307400;28;20030;-77
2022/05/18 21:23:46;;;;;;;3.22;2.92;;;;;;;17.93;70.88;101856.28;10341168;28;20145;-77
2022/05/18 21:28:47;;;;;;;5.15;2.42;;;;;;;17.91;71.18;101852.97;10340544;28;20045;-77
2022/05/18 21:33:47;;;;;;;3.72;3.40;;;;;;;17.84;70.89;101834.66;10305497;28;20106;-77
2022/05/18 21:38:50;;;;;;;4.88;2.40;;;;;;;17.75;72.92;101833.22;10337836;28;20037;-77
2022/05/18 21:43:51;;;;;;;10.90;3.30;;;;;;;17.69;75.23;101828.63;10337426;28;20041;-76
2022/05/18 21:48:51;;;;;;;3.85;3.45;;;;;;;17.64;78.72;101821.09;10337437;28;20385;-76
2022/05/18 21:53:52;;;;;;;4.78;3.78;;;;;;;17.69;78.70;101816.84;10338374;28;20041;-77
2022/05/18 21:58:53;;;;;;;4.35;3.83;;;;;;;17.69;78.22;101817.69;10304557;28;20092;-77
2022/05/18 22:03:53;;;;;;;4.15;3.42;;;;;;;17.68;76.52;101810.53;10338943;28;20054;-76
2022/05/18 22:08:54;;;;;;;3.75;3.45;;;;;;;17.58;80.97;101801.94;10339053;28;20414;-77
2022/05/18 22:14:02;;;;;;;5.03;4.55;;;;;;;17.49;82.60;101798.66;10319965;28;20047;-77
2022/05/18 22:19:20;;;;;;;4.68;3.92;;;;;;;17.45;82.43;101800.16;10325110;28;20053;-77
2022/05/18 22:24:21;;;;;;;13.00;6.65;;;;;;;17.39;83.00;101779.16;10349443;28;20050;-76
2022/05/18 22:29:22;;;;;;;9.45;6.68;;;;;;;17.29;86.81;101778.78;10349594;28;20044;-77
2022/05/18 22:34:24;;;;;;;11.88;7.70;;;;;;;17.28;88.10;101775.22;10345460;28;20538;-76
2022/05/18 22:39:25;;;;;;;11.05;6.95;;;;;;;17.22;90.43;101767.03;10337475;28;20038;-76
2022/05/18 22:44:32;;;;;;;18.75;7.72;;;;;;;17.22;89.86;101754.19;10319436;28;20030;-76
2022/05/18 22:49:33;;;;;;;;;;;;;;;17.20;92.59;101754.44;10320651;28;20038;-76
2022/05/18 22:54:33;;;;;;;11.07;8.27;;;;;;;17.25;90.47;101756.50;10334367;28;19914;-77
2022/05/18 22:59:34;;;;;;;23.98;9.43;;;;;;;17.22;93.37;101767.88;10335492;28;20035;-77
2022/05/18 23:04:34;;;;;;;13.65;8.15;;;;;;;17.27;92.26;101761.75;10318036;28;20042;-77
2022/05/18 23:09:38;;;;;;;23.52;9.98;;;;;;;17.28;93.21;101755.22;10334912;28;20547;-76
2022/05/18 23:14:38;;;;;;;14.60;9.85;;;;;;;17.31;94.38;101746.56;10335367;28;20038;-76
2022/05/18 23:19:45;;;;;;;15.18;11.60;;;;;;;17.38;94.24;101750.06;10333989;28;20033;-76
2022/05/18 23:24:46;;;;;;;22.60;11.38;;;;;;;17.45;94.44;101734.44;10334136;28;20054;-76
2022/05/18 23:29:46;;;;;;;16.95;10.63;;;;;;;17.47;94.91;101726.00;10334919;28;20042;-76
2022/05/18 23:34:47;;;;;;;22.58;12.05;;;;;;;17.49;96.20;101724.72;10335077;28;20058;-76
2022/05/18 23:39:48;;;;;;;17.38;12.18;;;;;;;17.48;97.48;101716.72;10317120;28;20031;-76
2022/05/18 23:44:48;;;;;;;13.02;10.30;;;;;;;17.60;93.69;101709.47;10324983;28;20030;-76
2022/05/18 23:49:49;;;;;;;20.33;12.73;;;;;;;17.59;95.23;101702.31;10343562;28;20039;-76
2022/05/18 23:54:49;;;;;;;13.48;12.07;;;;;;;17.59;95.29;101703.16;10321474;28;20081;-77
2022/05/18 23:59:54;;;;;;;17.45;10.70;;;;;;;17.59;96.89;101697.66;10333387;28;20036;-76
